sensor_id;sensor_type;location;lat;lon;timestamp;pressure;altitude;pressure_sealevel;temperature;humidity
53340;BME280;46212;50.258;19.062;2023-01-29T00:01:49;99430.50;;;-0.59;78.63
53340;BME280;46212;50.258;19.062;2023-01-29T00:04:15;99425.81;;;-0.62;78.82
53340;BME280;46212;50.258;19.062;2023-01-29T00:06:41;99420.25;;;-0.69;79.71
53340;BME280;46212;50.258;19.062;2023-01-29T00:09:06;99423.66;;;-0.52;77.11
53340;BME280;46212;50.258;19.062;2023-01-29T00:11:32;99425.94;;;-0.77;75.77
53340;BME280;46212;50.258;19.062;2023-01-29T00:13:57;99408.44;;;-1.02;76.10
53340;BME280;46212;50.258;19.062;2023-01-29T00:16:23;99421.53;;;-1.04;76.82
53340;BME280;46212;50.258;19.062;2023-01-29T00:18:49;99427.41;;;-1.02;77.29
53340;BME280;46212;50.258;19.062;2023-01-29T00:21:16;99415.38;;;-1.43;78.54
53340;BME280;46212;50.258;19.062;2023-01-29T00:23:42;99426.53;;;-1.64;78.90
53340;BME280;46212;50.258;19.062;2023-01-29T00:26:09;99430.41;;;-1.65;79.07
53340;BME280;46212;50.258;19.062;2023-01-29T00:28:35;99439.50;;;-1.73;78.73
53340;BME280;46212;50.258;19.062;2023-01-29T00:33:33;99445.97;;;-0.82;75.72
53340;BME280;46212;50.258;19.062;2023-01-29T00:36:02;99441.41;;;-0.78;75.49
53340;BME280;46212;50.258;19.062;2023-01-29T00:38:28;99434.56;;;-0.91;75.76
53340;BME280;46212;50.258;19.062;2023-01-29T00:40:53;99441.66;;;-0.86;76.12
53340;BME280;46212;50.258;19.062;2023-01-29T00:43:37;99455.69;;;-0.81;75.78
53340;BME280;46212;50.258;19.062;2023-01-29T00:46:21;99446.63;;;-0.88;75.74
53340;BME280;46212;50.258;19.062;2023-01-29T00:48:46;99423.25;;;-0.96;76.18
53340;BME280;46212;50.258;19.062;2023-01-29T00:51:11;99428.19;;;-1.02;76.85
53340;BME280;46212;50.258;19.062;2023-01-29T00:53:37;99437.44;;;-0.84;77.21
53340;BME280;46212;50.258;19.062;2023-01-29T00:56:02;99423.47;;;-0.86;76.91
53340;BME280;46212;50.258;19.062;2023-01-29T00:58:28;99445.88;;;-0.66;75.83
53340;BME280;46212;50.258;19.062;2023-01-29T01:00:59;99448.81;;;-0.75;76.27
53340;BME280;46212;50.258;19.062;2023-01-29T01:03:25;99455.03;;;-0.74;76.32
53340;BME280;46212;50.258;19.062;2023-01-29T01:06:01;99446.16;;;-0.94;76.15
53340;BME280;46212;50.258;19.062;2023-01-29T01:08:27;99458.94;;;-0.72;76.27
53340;BME280;46212;50.258;19.062;2023-01-29T01:11:10;99460.09;;;-0.73;76.58
53340;BME280;46212;50.258;19.062;2023-01-29T01:13:36;99444.63;;;-0.91;76.65
53340;BME280;46212;50.258;19.062;2023-01-29T01:16:08;99460.69;;;-0.83;76.87
53340;BME280;46212;50.258;19.062;2023-01-29T01:18:33;99468.19;;;-0.95;77.40
53340;BME280;46212;50.258;19.062;2023-01-29T01:20:59;99462.72;;;-1.18;77.78
53340;BME280;46212;50.258;19.062;2023-01-29T01:23:24;99457.47;;;-1.65;80.17
53340;BME280;46212;50.258;19.062;2023-01-29T01:25:49;99445.22;;;-1.59;80.73
53340;BME280;46212;50.258;19.062;2023-01-29T01:28:15;99448.22;;;-1.26;79.71
53340;BME280;46212;50.258;19.062;2023-01-29T01:30:41;99438.47;;;-1.30;79.11
53340;BME280;46212;50.258;19.062;2023-01-29T01:33:06;99440.63;;;-1.74;79.94
53340;BME280;46212;50.258;19.062;2023-01-29T01:35:32;99436.94;;;-1.66;80.22
53340;BME280;46212;50.258;19.062;2023-01-29T01:37:58;99432.94;;;-1.72;79.94
53340;BME280;46212;50.258;19.062;2023-01-29T01:40:24;99424.03;;;-1.73;79.63
53340;BME280;46212;50.258;19.062;2023-01-29T01:42:55;99449.84;;;-1.59;79.61
53340;BME280;46212;50.258;19.062;2023-01-29T01:47:50;99441.72;;;-1.59;78.57
53340;BME280;46212;50.258;19.062;2023-01-29T01:50:25;99428.63;;;-1.38;78.05
53340;BME280;46212;50.258;19.062;2023-01-29T01:53:11;99442.03;;;-1.80;77.97
53340;BME280;46212;50.258;19.062;2023-01-29T01:55:44;99441.94;;;-1.84;78.56
53340;BME280;46212;50.258;19.062;2023-01-29T01:58:17;99434.69;;;-1.80;79.46
53340;BME280;46212;50.258;19.062;2023-01-29T02:00:45;99418.03;;;-1.82;78.75
53340;BME280;46212;50.258;19.062;2023-01-29T02:03:11;99427.03;;;-1.93;79.42
53340;BME280;46212;50.258;19.062;2023-01-29T02:05:57;99413.72;;;-2.18;79.34
53340;BME280;46212;50.258;19.062;2023-01-29T02:08:51;99424.81;;;-2.07;78.34
53340;BME280;46212;50.258;19.062;2023-01-29T02:11:38;99406.47;;;-1.98;78.21
53340;BME280;46212;50.258;19.062;2023-01-29T02:14:04;99404.81;;;-2.18;78.72
53340;BME280;46212;50.258;19.062;2023-01-29T02:16:33;99426.78;;;-1.88;77.78
53340;BME280;46212;50.258;19.062;2023-01-29T02:18:58;99417.22;;;-2.17;78.14
53340;BME280;46212;50.258;19.062;2023-01-29T02:27:06;99419.16;;;-2.18;77.54
53340;BME280;46212;50.258;19.062;2023-01-29T02:34:56;99408.44;;;-2.30;77.86
53340;BME280;46212;50.258;19.062;2023-01-29T02:38:18;99406.25;;;-2.55;78.60
53340;BME280;46212;50.258;19.062;2023-01-29T02:41:02;99392.47;;;-2.50;78.53
53340;BME280;46212;50.258;19.062;2023-01-29T02:44:39;99400.25;;;-2.49;78.17
53340;BME280;46212;50.258;19.062;2023-01-29T02:51:50;99424.75;;;-2.42;77.89
53340;BME280;46212;50.258;19.062;2023-01-29T02:57:00;99417.91;;;-2.04;76.05
53340;BME280;46212;50.258;19.062;2023-01-29T02:59:36;99433.38;;;-2.21;75.22
53340;BME280;46212;50.258;19.062;2023-01-29T03:02:08;99435.41;;;-1.83;73.70
53340;BME280;46212;50.258;19.062;2023-01-29T03:04:42;99436.66;;;-1.96;72.88
53340;BME280;46212;50.258;19.062;2023-01-29T03:07:16;99422.91;;;-2.06;73.17
53340;BME280;46212;50.258;19.062;2023-01-29T03:10:10;99422.22;;;-2.50;74.00
53340;BME280;46212;50.258;19.062;2023-01-29T03:12:38;99434.28;;;-2.63;74.35
53340;BME280;46212;50.258;19.062;2023-01-29T03:15:28;99422.22;;;-2.50;74.89
53340;BME280;46212;50.258;19.062;2023-01-29T03:18:05;99442.63;;;-2.37;73.85
53340;BME280;46212;50.258;19.062;2023-01-29T03:20:37;99444.03;;;-2.43;74.33
53340;BME280;46212;50.258;19.062;2023-01-29T03:23:09;99435.66;;;-2.54;73.45
53340;BME280;46212;50.258;19.062;2023-01-29T03:25:37;99447.09;;;-2.29;71.76
53340;BME280;46212;50.258;19.062;2023-01-29T03:28:23;99452.13;;;-2.28;71.11
53340;BME280;46212;50.258;19.062;2023-01-29T03:31:11;99439.94;;;-2.37;70.74
53340;BME280;46212;50.258;19.062;2023-01-29T03:34:06;99458.84;;;-2.37;71.23
53340;BME280;46212;50.258;19.062;2023-01-29T03:36:39;99433.03;;;-2.50;70.47
53340;BME280;46212;50.258;19.062;2023-01-29T03:39:11;99447.25;;;-2.38;70.44
53340;BME280;46212;50.258;19.062;2023-01-29T03:44:46;99448.91;;;-2.18;68.86
53340;BME280;46212;50.258;19.062;2023-01-29T03:50:33;99425.00;;;-2.47;69.53
53340;BME280;46212;50.258;19.062;2023-01-29T03:53:06;99432.97;;;-2.38;70.31
53340;BME280;46212;50.258;19.062;2023-01-29T03:58:39;99413.06;;;-2.61;69.86
53340;BME280;46212;50.258;19.062;2023-01-29T04:01:19;99430.91;;;-2.73;69.79
53340;BME280;46212;50.258;19.062;2023-01-29T04:03:55;99420.66;;;-2.67;69.08
53340;BME280;46212;50.258;19.062;2023-01-29T04:06:23;99416.03;;;-2.51;68.83
53340;BME280;46212;50.258;19.062;2023-01-29T04:09:08;99420.19;;;-2.38;68.67
53340;BME280;46212;50.258;19.062;2023-01-29T04:11:38;99419.25;;;-2.61;68.20
53340;BME280;46212;50.258;19.062;2023-01-29T04:14:06;99415.66;;;-2.81;69.13
53340;BME280;46212;50.258;19.062;2023-01-29T04:16:38;99419.56;;;-2.94;68.89
53340;BME280;46212;50.258;19.062;2023-01-29T04:19:05;99422.47;;;-2.87;69.16
53340;BME280;46212;50.258;19.062;2023-01-29T04:21:32;99426.06;;;-2.67;69.07
53340;BME280;46212;50.258;19.062;2023-01-29T04:23:58;99416.88;;;-2.78;69.13
53340;BME280;46212;50.258;19.062;2023-01-29T04:32:03;99398.59;;;-1.87;65.94
53340;BME280;46212;50.258;19.062;2023-01-29T04:37:44;99364.69;;;-2.16;65.31
53340;BME280;46212;50.258;19.062;2023-01-29T04:43:08;99372.81;;;-1.81;65.01
53340;BME280;46212;50.258;19.062;2023-01-29T04:46:06;99365.50;;;-1.96;65.69
53340;BME280;46212;50.258;19.062;2023-01-29T04:48:54;99365.75;;;-1.67;65.04
53340;BME280;46212;50.258;19.062;2023-01-29T04:51:31;99352.91;;;-1.70;65.40
53340;BME280;46212;50.258;19.062;2023-01-29T04:54:27;99344.00;;;-1.70;65.50
53340;BME280;46212;50.258;19.062;2023-01-29T04:59:35;99340.88;;;-1.91;66.89
53340;BME280;46212;50.258;19.062;2023-01-29T05:02:03;99342.16;;;-1.85;66.49
53340;BME280;46212;50.258;19.062;2023-01-29T05:04:30;99351.00;;;-1.69;66.24
53340;BME280;46212;50.258;19.062;2023-01-29T05:07:01;99351.88;;;-1.65;66.03
53340;BME280;46212;50.258;19.062;2023-01-29T05:09:28;99354.91;;;-1.86;66.88
53340;BME280;46212;50.258;19.062;2023-01-29T05:11:55;99357.16;;;-2.07;67.58
53340;BME280;46212;50.258;19.062;2023-01-29T05:14:22;99354.63;;;-1.62;65.78
53340;BME280;46212;50.258;19.062;2023-01-29T05:16:51;99366.94;;;-1.45;64.83
53340;BME280;46212;50.258;19.062;2023-01-29T05:19:18;99352.34;;;-1.79;66.01
53340;BME280;46212;50.258;19.062;2023-01-29T05:21:46;99353.84;;;-1.62;65.68
53340;BME280;46212;50.258;19.062;2023-01-29T05:24:18;99374.56;;;-1.70;65.59
53340;BME280;46212;50.258;19.062;2023-01-29T05:26:46;99378.41;;;-1.90;66.96
53340;BME280;46212;50.258;19.062;2023-01-29T05:29:31;99372.72;;;-1.85;67.30
53340;BME280;46212;50.258;19.062;2023-01-29T05:31:56;99380.25;;;-1.94;67.28
53340;BME280;46212;50.258;19.062;2023-01-29T05:34:22;99376.09;;;-2.07;67.69
53340;BME280;46212;50.258;19.062;2023-01-29T05:36:48;99380.06;;;-2.20;68.88
53340;BME280;46212;50.258;19.062;2023-01-29T05:39:13;99382.34;;;-2.03;68.65
53340;BME280;46212;50.258;19.062;2023-01-29T05:41:39;99369.09;;;-1.54;66.45
53340;BME280;46212;50.258;19.062;2023-01-29T05:44:04;99359.41;;;-2.09;67.30
53340;BME280;46212;50.258;19.062;2023-01-29T05:46:30;99361.84;;;-2.39;68.92
53340;BME280;46212;50.258;19.062;2023-01-29T05:48:55;99357.59;;;-2.55;69.57
53340;BME280;46212;50.258;19.062;2023-01-29T05:51:21;99366.81;;;-2.41;69.70
53340;BME280;46212;50.258;19.062;2023-01-29T05:53:46;99379.81;;;-2.31;69.44
53340;BME280;46212;50.258;19.062;2023-01-29T05:56:12;99381.94;;;-2.55;69.77
53340;BME280;46212;50.258;19.062;2023-01-29T05:58:37;99374.00;;;-2.48;69.55
53340;BME280;46212;50.258;19.062;2023-01-29T06:03:39;99380.00;;;-2.39;69.65
53340;BME280;46212;50.258;19.062;2023-01-29T06:06:04;99377.13;;;-2.46;69.52
53340;BME280;46212;50.258;19.062;2023-01-29T06:08:30;99383.63;;;-2.16;69.37
53340;BME280;46212;50.258;19.062;2023-01-29T06:10:55;99383.22;;;-2.34;69.27
53340;BME280;46212;50.258;19.062;2023-01-29T06:13:21;99383.31;;;-2.46;70.08
53340;BME280;46212;50.258;19.062;2023-01-29T06:15:46;99383.16;;;-2.02;69.44
53340;BME280;46212;50.258;19.062;2023-01-29T06:18:11;99381.19;;;-2.21;68.90
53340;BME280;46212;50.258;19.062;2023-01-29T06:20:37;99370.34;;;-1.86;68.33
53340;BME280;46212;50.258;19.062;2023-01-29T06:23:03;99382.00;;;-2.36;69.60
53340;BME280;46212;50.258;19.062;2023-01-29T06:25:29;99374.81;;;-2.13;69.42
53340;BME280;46212;50.258;19.062;2023-01-29T06:27:54;99386.28;;;-2.35;69.78
53340;BME280;46212;50.258;19.062;2023-01-29T06:30:19;99391.75;;;-2.47;70.56
53340;BME280;46212;50.258;19.062;2023-01-29T06:32:45;99393.16;;;-2.38;70.97
53340;BME280;46212;50.258;19.062;2023-01-29T06:35:10;99395.88;;;-2.22;70.20
53340;BME280;46212;50.258;19.062;2023-01-29T06:37:36;99393.84;;;-2.41;70.55
53340;BME280;46212;50.258;19.062;2023-01-29T06:40:02;99380.44;;;-2.69;71.49
53340;BME280;46212;50.258;19.062;2023-01-29T06:42:27;99393.00;;;-2.29;71.19
53340;BME280;46212;50.258;19.062;2023-01-29T06:44:56;99385.03;;;-2.22;71.00
53340;BME280;46212;50.258;19.062;2023-01-29T06:47:22;99386.44;;;-2.28;71.32
53340;BME280;46212;50.258;19.062;2023-01-29T06:49:48;99378.41;;;-2.25;71.39
53340;BME280;46212;50.258;19.062;2023-01-29T06:52:14;99381.88;;;-2.24;71.38
53340;BME280;46212;50.258;19.062;2023-01-29T06:54:39;99386.09;;;-2.27;71.01
53340;BME280;46212;50.258;19.062;2023-01-29T06:57:04;99383.38;;;-2.27;71.45
53340;BME280;46212;50.258;19.062;2023-01-29T06:59:30;99374.06;;;-2.29;70.89
53340;BME280;46212;50.258;19.062;2023-01-29T07:01:55;99386.09;;;-2.27;71.75
53340;BME280;46212;50.258;19.062;2023-01-29T07:04:21;99380.31;;;-2.25;71.51
53340;BME280;46212;50.258;19.062;2023-01-29T07:06:46;99390.88;;;-2.20;72.06
53340;BME280;46212;50.258;19.062;2023-01-29T07:09:12;99392.97;;;-2.13;72.41
53340;BME280;46212;50.258;19.062;2023-01-29T07:11:40;99394.72;;;-2.21;72.68
53340;BME280;46212;50.258;19.062;2023-01-29T07:14:05;99391.75;;;-1.81;71.61
53340;BME280;46212;50.258;19.062;2023-01-29T07:16:31;99391.00;;;-1.97;71.82
53340;BME280;46212;50.258;19.062;2023-01-29T07:18:57;99385.00;;;-2.06;73.24
53340;BME280;46212;50.258;19.062;2023-01-29T07:21:23;99387.00;;;-2.03;73.71
53340;BME280;46212;50.258;19.062;2023-01-29T07:23:48;99401.53;;;-2.27;75.27
53340;BME280;46212;50.258;19.062;2023-01-29T07:26:14;99391.75;;;-2.16;75.90
53340;BME280;46212;50.258;19.062;2023-01-29T07:28:40;99401.47;;;-2.46;78.31
53340;BME280;46212;50.258;19.062;2023-01-29T07:31:06;99407.47;;;-2.37;79.17
53340;BME280;46212;50.258;19.062;2023-01-29T07:33:32;99407.63;;;-2.30;80.14
53340;BME280;46212;50.258;19.062;2023-01-29T07:35:58;99403.91;;;-2.26;80.44
53340;BME280;46212;50.258;19.062;2023-01-29T07:38:23;99404.94;;;-2.30;81.66
53340;BME280;46212;50.258;19.062;2023-01-29T07:40:51;99412.44;;;-2.39;82.90
53340;BME280;46212;50.258;19.062;2023-01-29T07:43:16;99415.34;;;-2.48;83.05
53340;BME280;46212;50.258;19.062;2023-01-29T07:45:42;99411.47;;;-2.31;82.97
53340;BME280;46212;50.258;19.062;2023-01-29T07:48:10;99398.84;;;-2.43;82.94
53340;BME280;46212;50.258;19.062;2023-01-29T07:50:36;99409.38;;;-2.38;83.62
53340;BME280;46212;50.258;19.062;2023-01-29T07:53:01;99412.47;;;-2.71;85.07
53340;BME280;46212;50.258;19.062;2023-01-29T07:55:27;99416.75;;;-2.38;84.79
53340;BME280;46212;50.258;19.062;2023-01-29T07:58:01;99411.56;;;-2.28;84.10
53340;BME280;46212;50.258;19.062;2023-01-29T08:00:28;99424.78;;;-1.91;82.67
53340;BME280;46212;50.258;19.062;2023-01-29T08:03:03;99426.66;;;-1.76;81.60
53340;BME280;46212;50.258;19.062;2023-01-29T08:05:29;99432.94;;;-2.07;81.78
53340;BME280;46212;50.258;19.062;2023-01-29T08:07:55;99433.19;;;-1.77;80.98
53340;BME280;46212;50.258;19.062;2023-01-29T08:10:20;99430.19;;;-1.91;79.98
53340;BME280;46212;50.258;19.062;2023-01-29T08:12:46;99426.63;;;-1.95;79.79
53340;BME280;46212;50.258;19.062;2023-01-29T08:15:11;99452.63;;;-1.91;79.77
53340;BME280;46212;50.258;19.062;2023-01-29T08:17:36;99444.53;;;-1.91;80.36
53340;BME280;46212;50.258;19.062;2023-01-29T08:20:05;99451.31;;;-1.81;79.78
53340;BME280;46212;50.258;19.062;2023-01-29T08:22:31;99457.47;;;-1.65;78.31
53340;BME280;46212;50.258;19.062;2023-01-29T08:24:56;99435.97;;;-2.08;77.38
53340;BME280;46212;50.258;19.062;2023-01-29T08:27:22;99424.97;;;-2.16;76.86
53340;BME280;46212;50.258;19.062;2023-01-29T08:29:47;99448.19;;;-1.64;75.67
53340;BME280;46212;50.258;19.062;2023-01-29T08:32:13;99435.38;;;-1.48;73.67
53340;BME280;46212;50.258;19.062;2023-01-29T08:34:38;99454.72;;;-1.49;74.20
53340;BME280;46212;50.258;19.062;2023-01-29T08:37:03;99453.28;;;-1.63;75.00
53340;BME280;46212;50.258;19.062;2023-01-29T08:39:29;99463.53;;;-1.72;75.47
53340;BME280;46212;50.258;19.062;2023-01-29T08:41:54;99455.47;;;-1.84;75.81
53340;BME280;46212;50.258;19.062;2023-01-29T08:44:20;99456.09;;;-1.75;74.50
53340;BME280;46212;50.258;19.062;2023-01-29T08:46:45;99460.44;;;-1.70;75.18
53340;BME280;46212;50.258;19.062;2023-01-29T08:49:10;99450.06;;;-1.68;74.79
53340;BME280;46212;50.258;19.062;2023-01-29T08:51:36;99462.66;;;-1.76;74.64
53340;BME280;46212;50.258;19.062;2023-01-29T08:54:01;99454.97;;;-1.89;74.72
53340;BME280;46212;50.258;19.062;2023-01-29T08:56:27;99456.69;;;-1.66;74.16
53340;BME280;46212;50.258;19.062;2023-01-29T08:58:52;99460.47;;;-1.86;74.38
53340;BME280;46212;50.258;19.062;2023-01-29T09:01:18;99453.44;;;-2.06;75.04
53340;BME280;46212;50.258;19.062;2023-01-29T09:03:43;99458.19;;;-1.68;75.09
53340;BME280;46212;50.258;19.062;2023-01-29T09:06:11;99439.66;;;-1.47;73.94
53340;BME280;46212;50.258;19.062;2023-01-29T09:08:37;99432.28;;;-1.85;74.13
53340;BME280;46212;50.258;19.062;2023-01-29T09:11:03;99424.69;;;-1.60;74.80
53340;BME280;46212;50.258;19.062;2023-01-29T09:13:28;99419.78;;;-1.54;74.28
53340;BME280;46212;50.258;19.062;2023-01-29T09:15:57;99411.09;;;-1.44;73.95
53340;BME280;46212;50.258;19.062;2023-01-29T09:18:23;99412.44;;;-1.16;72.51
53340;BME280;46212;50.258;19.062;2023-01-29T09:20:48;99412.22;;;-1.45;73.08
53340;BME280;46212;50.258;19.062;2023-01-29T09:23:14;99406.69;;;-1.52;73.94
53340;BME280;46212;50.258;19.062;2023-01-29T09:25:41;99412.00;;;-1.56;74.29
53340;BME280;46212;50.258;19.062;2023-01-29T09:28:07;99412.09;;;-1.33;73.98
53340;BME280;46212;50.258;19.062;2023-01-29T09:30:33;99422.31;;;-1.62;75.02
53340;BME280;46212;50.258;19.062;2023-01-29T09:33:02;99410.38;;;-1.41;75.09
53340;BME280;46212;50.258;19.062;2023-01-29T09:35:27;99416.16;;;-1.62;74.37
53340;BME280;46212;50.258;19.062;2023-01-29T09:37:53;99407.25;;;-1.43;74.63
53340;BME280;46212;50.258;19.062;2023-01-29T09:40:29;99424.28;;;-1.43;74.60
53340;BME280;46212;50.258;19.062;2023-01-29T09:43:01;99438.25;;;-1.41;72.14
53340;BME280;46212;50.258;19.062;2023-01-29T09:45:29;99437.31;;;-1.48;68.98
53340;BME280;46212;50.258;19.062;2023-01-29T09:47:56;99435.88;;;-1.42;69.01
53340;BME280;46212;50.258;19.062;2023-01-29T09:50:33;99426.31;;;-0.98;68.13
53340;BME280;46212;50.258;19.062;2023-01-29T09:56:12;99418.63;;;-1.15;68.61
53340;BME280;46212;50.258;19.062;2023-01-29T09:58:40;99416.69;;;-0.95;64.67
53340;BME280;46212;50.258;19.062;2023-01-29T10:04:05;99409.66;;;-1.19;66.37
53340;BME280;46212;50.258;19.062;2023-01-29T10:20:13;99376.50;;;-0.90;65.35
53340;BME280;46212;50.258;19.062;2023-01-29T10:25:39;99347.53;;;-1.09;65.08
53340;BME280;46212;50.258;19.062;2023-01-29T10:28:15;99342.19;;;-1.24;65.46
53340;BME280;46212;50.258;19.062;2023-01-29T10:30:49;99343.34;;;-1.44;67.03
53340;BME280;46212;50.258;19.062;2023-01-29T10:33:25;99346.78;;;-1.05;66.38
53340;BME280;46212;50.258;19.062;2023-01-29T10:35:57;99334.97;;;-1.17;66.49
53340;BME280;46212;50.258;19.062;2023-01-29T10:38:36;99340.09;;;-1.12;66.33
53340;BME280;46212;50.258;19.062;2023-01-29T10:49:19;99300.03;;;-0.50;64.31
53340;BME280;46212;50.258;19.062;2023-01-29T10:54:43;99296.34;;;-0.65;63.57
53340;BME280;46212;50.258;19.062;2023-01-29T11:02:32;99282.47;;;-0.60;63.12
53340;BME280;46212;50.258;19.062;2023-01-29T11:04:58;99278.72;;;-0.51;63.10
53340;BME280;46212;50.258;19.062;2023-01-29T11:07:23;99270.31;;;-0.43;61.80
53340;BME280;46212;50.258;19.062;2023-01-29T11:10:01;99266.78;;;0.13;60.45
53340;BME280;46212;50.258;19.062;2023-01-29T11:12:29;99261.44;;;0.23;60.58
53340;BME280;46212;50.258;19.062;2023-01-29T11:17:30;99243.41;;;0.41;59.28
53340;BME280;46212;50.258;19.062;2023-01-29T11:19:55;99233.97;;;-0.05;59.69
53340;BME280;46212;50.258;19.062;2023-01-29T11:22:26;99236.28;;;-0.07;60.48
53340;BME280;46212;50.258;19.062;2023-01-29T11:25:17;99237.81;;;0.64;59.33
53340;BME280;46212;50.258;19.062;2023-01-29T11:28:05;99223.84;;;1.13;57.48
53340;BME280;46212;50.258;19.062;2023-01-29T11:30:33;99221.06;;;1.06;57.15
53340;BME280;46212;50.258;19.062;2023-01-29T11:33:11;99225.19;;;0.86;57.44
53340;BME280;46212;50.258;19.062;2023-01-29T11:35:42;99202.91;;;0.29;58.66
53340;BME280;46212;50.258;19.062;2023-01-29T11:40:48;99229.81;;;0.38;59.00
53340;BME280;46212;50.258;19.062;2023-01-29T11:43:19;99224.09;;;0.13;59.56
53340;BME280;46212;50.258;19.062;2023-01-29T11:45:47;99224.38;;;-0.29;60.02
53340;BME280;46212;50.258;19.062;2023-01-29T11:48:15;99229.28;;;-0.38;61.59
53340;BME280;46212;50.258;19.062;2023-01-29T11:50:42;99216.19;;;-0.32;61.31
53340;BME280;46212;50.258;19.062;2023-01-29T11:53:33;99227.56;;;-0.49;61.73
53340;BME280;46212;50.258;19.062;2023-01-29T11:56:04;99224.97;;;-0.95;62.83
53340;BME280;46212;50.258;19.062;2023-01-29T11:58:33;99240.69;;;-1.30;64.40
53340;BME280;46212;50.258;19.062;2023-01-29T12:01:00;99225.16;;;-1.33;64.56
53340;BME280;46212;50.258;19.062;2023-01-29T12:08:22;99231.13;;;-0.45;64.78
53340;BME280;46212;50.258;19.062;2023-01-29T12:10:48;99216.94;;;-0.35;63.42
53340;BME280;46212;50.258;19.062;2023-01-29T12:15:42;99210.19;;;-0.15;61.46
53340;BME280;46212;50.258;19.062;2023-01-29T12:18:31;99224.97;;;0.21;60.55
53340;BME280;46212;50.258;19.062;2023-01-29T12:21:02;99214.88;;;-0.12;61.15
53340;BME280;46212;50.258;19.062;2023-01-29T12:23:52;99224.81;;;0.43;59.33
53340;BME280;46212;50.258;19.062;2023-01-29T12:26:29;99221.31;;;0.43;58.97
53340;BME280;46212;50.258;19.062;2023-01-29T12:32:26;99204.38;;;1.04;57.74
53340;BME280;46212;50.258;19.062;2023-01-29T12:35:10;99207.75;;;0.90;56.54
53340;BME280;46212;50.258;19.062;2023-01-29T12:40:13;99174.56;;;0.71;57.10
53340;BME280;46212;50.258;19.062;2023-01-29T12:42:43;99167.06;;;1.01;56.86
53340;BME280;46212;50.258;19.062;2023-01-29T12:45:16;99182.63;;;1.08;56.22
53340;BME280;46212;50.258;19.062;2023-01-29T12:47:46;99187.34;;;1.14;55.94
53340;BME280;46212;50.258;19.062;2023-01-29T12:50:26;99174.34;;;1.51;55.08
53340;BME280;46212;50.258;19.062;2023-01-29T12:52:56;99174.38;;;1.66;54.39
53340;BME280;46212;50.258;19.062;2023-01-29T12:55:32;99170.97;;;1.83;53.49
53340;BME280;46212;50.258;19.062;2023-01-29T12:58:03;99169.66;;;1.48;54.56
53340;BME280;46212;50.258;19.062;2023-01-29T13:00:37;99165.81;;;1.60;54.04
53340;BME280;46212;50.258;19.062;2023-01-29T13:03:19;99160.28;;;1.46;54.87
53340;BME280;46212;50.258;19.062;2023-01-29T13:05:51;99149.56;;;1.85;53.82
53340;BME280;46212;50.258;19.062;2023-01-29T13:08:29;99170.91;;;1.72;53.45
53340;BME280;46212;50.258;19.062;2023-01-29T13:10:57;99158.28;;;1.29;54.70
53340;BME280;46212;50.258;19.062;2023-01-29T13:16:03;99161.81;;;1.36;55.27
53340;BME280;46212;50.258;19.062;2023-01-29T13:21:05;99163.59;;;1.87;53.28
53340;BME280;46212;50.258;19.062;2023-01-29T13:23:40;99159.31;;;1.89;53.20
53340;BME280;46212;50.258;19.062;2023-01-29T13:26:07;99151.25;;;1.24;54.06
53340;BME280;46212;50.258;19.062;2023-01-29T13:28:33;99152.47;;;1.37;54.32
53340;BME280;46212;50.258;19.062;2023-01-29T13:31:33;99146.13;;;1.98;53.15
53340;BME280;46212;50.258;19.062;2023-01-29T13:34:24;99141.81;;;1.94;53.55
53340;BME280;46212;50.258;19.062;2023-01-29T13:36:59;99135.88;;;1.60;53.90
53340;BME280;46212;50.258;19.062;2023-01-29T13:39:33;99129.03;;;2.12;53.23
53340;BME280;46212;50.258;19.062;2023-01-29T13:42:03;99126.31;;;2.26;53.33
53340;BME280;46212;50.258;19.062;2023-01-29T13:44:39;99142.34;;;1.34;54.51
53340;BME280;46212;50.258;19.062;2023-01-29T13:47:10;99143.97;;;1.46;54.23
53340;BME280;46212;50.258;19.062;2023-01-29T13:49:52;99129.53;;;0.73;56.81
53340;BME280;46212;50.258;19.062;2023-01-29T13:55:03;99110.22;;;0.89;56.65
53340;BME280;46212;50.258;19.062;2023-01-29T13:57:47;99117.69;;;1.02;56.88
53340;BME280;46212;50.258;19.062;2023-01-29T14:11:32;99108.25;;;0.79;57.89
53340;BME280;46212;50.258;19.062;2023-01-29T14:13:59;99122.41;;;0.54;58.13
53340;BME280;46212;50.258;19.062;2023-01-29T14:16:27;99099.69;;;0.29;59.16
53340;BME280;46212;50.258;19.062;2023-01-29T14:18:59;99096.25;;;0.36;59.65
53340;BME280;46212;50.258;19.062;2023-01-29T14:21:35;99104.59;;;0.57;60.65
53340;BME280;46212;50.258;19.062;2023-01-29T14:24:14;99102.28;;;0.59;59.91
53340;BME280;46212;50.258;19.062;2023-01-29T14:26:43;99107.97;;;0.98;58.17
53340;BME280;46212;50.258;19.062;2023-01-29T14:31:58;99105.56;;;0.31;60.45
53340;BME280;46212;50.258;19.062;2023-01-29T14:34:31;99099.13;;;0.06;60.97
53340;BME280;46212;50.258;19.062;2023-01-29T14:37:21;99104.44;;;0.39;61.01
53340;BME280;46212;50.258;19.062;2023-01-29T14:39:54;99107.66;;;0.52;60.44
53340;BME280;46212;50.258;19.062;2023-01-29T14:45:26;99110.56;;;-0.11;62.38
53340;BME280;46212;50.258;19.062;2023-01-29T14:48:02;99098.84;;;-0.19;62.59
53340;BME280;46212;50.258;19.062;2023-01-29T14:53:00;99109.66;;;0.15;62.28
53340;BME280;46212;50.258;19.062;2023-01-29T14:55:51;99110.38;;;0.08;62.27
53340;BME280;46212;50.258;19.062;2023-01-29T15:00:52;99090.78;;;-0.12;62.78
53340;BME280;46212;50.258;19.062;2023-01-29T15:03:38;99108.06;;;-0.64;63.97
53340;BME280;46212;50.258;19.062;2023-01-29T15:06:06;99107.75;;;-0.55;64.58
53340;BME280;46212;50.258;19.062;2023-01-29T15:08:40;99088.81;;;-0.15;63.71
53340;BME280;46212;50.258;19.062;2023-01-29T15:11:47;99111.31;;;-0.47;63.62
53340;BME280;46212;50.258;19.062;2023-01-29T15:14:25;99111.34;;;-1.07;65.77
53340;BME280;46212;50.258;19.062;2023-01-29T15:17:00;99107.69;;;-1.18;66.27
53340;BME280;46212;50.258;19.062;2023-01-29T15:19:34;99103.94;;;-1.10;66.23
53340;BME280;46212;50.258;19.062;2023-01-29T15:22:19;99101.03;;;-1.24;66.91
53340;BME280;46212;50.258;19.062;2023-01-29T15:24:47;99090.81;;;-1.08;66.56
53340;BME280;46212;50.258;19.062;2023-01-29T15:27:27;99115.66;;;-1.02;66.33
53340;BME280;46212;50.258;19.062;2023-01-29T15:30:00;99107.53;;;-1.29;67.18